createdAt,value
2022-12-19T00:00:39.434Z,100683.16
2022-12-19T00:03:46.672Z,100680.59
2022-12-19T00:06:49.213Z,100678.81
2022-12-19T00:09:52.134Z,100677.84
2022-12-19T00:12:54.584Z,100693.78
2022-12-19T00:16:04.552Z,100686.72
2022-12-19T00:19:07.773Z,100685.16
2022-12-19T00:22:11.360Z,100692.00
2022-12-19T00:25:14.072Z,100694.63
2022-12-19T00:28:17.207Z,100677.63
2022-12-19T00:31:23.153Z,100695.59
2022-12-19T00:34:26.236Z,100678.50
2022-12-19T00:37:29.083Z,100686.81
2022-12-19T00:40:32.118Z,100688.44
2022-12-19T00:43:35.474Z,100693.66
2022-12-19T00:46:38.942Z,100698.25
2022-12-19T00:49:41.424Z,100692.75
2022-12-19T00:52:45.208Z,100699.22
2022-12-19T00:55:47.723Z,100688.56
2022-12-19T00:58:51.193Z,100694.72
2022-12-19T01:01:54.007Z,100701.87
2022-12-19T01:04:56.950Z,100695.56
2022-12-19T01:07:59.404Z,100691.13
2022-12-19T01:11:05.301Z,100686.75
2022-12-19T01:14:10.380Z,100689.47
2022-12-19T01:17:14.629Z,100667.75
2022-12-19T01:20:21.423Z,100678.66
2022-12-19T01:23:32.831Z,100680.44
2022-12-19T01:26:35.421Z,100674.44
2022-12-19T01:29:52.492Z,100682.38
2022-12-19T01:32:56.752Z,100625.03
2022-12-19T01:36:07.733Z,100664.78
2022-12-19T01:39:10.713Z,100660.34
2022-12-19T01:42:21.143Z,100638.91
2022-12-19T01:45:34.085Z,100645.50
2022-12-19T01:48:43.961Z,100651.69
2022-12-19T01:51:48.479Z,100637.59
2022-12-19T01:54:51.434Z,100637.47
2022-12-19T01:57:54.744Z,100630.28
2022-12-19T02:00:58.216Z,100635.75
2022-12-19T02:04:02.050Z,100632.06
2022-12-19T02:07:15.541Z,100627.75
2022-12-19T02:10:19.186Z,100634.84
2022-12-19T02:13:23.111Z,100637.47
2022-12-19T02:16:39.221Z,100628.44
2022-12-19T02:20:16.112Z,100626.72
2022-12-19T02:23:34.645Z,100623.19
2022-12-19T02:27:14.127Z,100619.59
2022-12-19T02:30:36.546Z,100628.28
2022-12-19T02:33:56.241Z,100630.72
2022-12-19T02:37:10.598Z,100626.63
2022-12-19T02:40:16.790Z,100626.63
2022-12-19T02:43:20.889Z,100633.87
2022-12-19T02:46:25.346Z,100627.75
2022-12-19T02:49:31.266Z,100632.22
2022-12-19T02:52:34.355Z,100630.31
2022-12-19T02:56:14.868Z,100626.94
2022-12-19T02:59:43.906Z,100634.75
2022-12-19T03:03:22.254Z,100642.75
2022-12-19T03:06:43.390Z,100632.06
2022-12-19T03:10:08.640Z,100634.75
2022-12-19T03:13:33.907Z,100643.72
2022-12-19T03:16:38.145Z,100649.88
2022-12-19T03:19:41.556Z,100635.81
2022-12-19T03:22:44.412Z,100628.81
2022-12-19T03:25:50.132Z,100621.75
2022-12-19T03:29:09.786Z,100620.69
2022-12-19T03:32:16.181Z,100611.88
2022-12-19T03:35:22.805Z,100612.81
2022-12-19T03:38:26.551Z,100612.81
2022-12-19T03:41:48.542Z,100609.19
2022-12-19T03:44:51.693Z,100608.50
2022-12-19T03:48:01.075Z,100608.62
2022-12-19T03:51:11.644Z,100611.75
2022-12-19T03:54:19.147Z,100610.16
2022-12-19T03:57:28.627Z,100606.75
2022-12-19T04:00:34.787Z,100618.06
2022-12-19T04:03:37.664Z,100626.00
2022-12-19T04:06:42.577Z,100615.78
2022-12-19T04:09:45.918Z,100616.53
2022-12-19T04:13:02.337Z,100613.00
2022-12-19T04:16:22.679Z,100619.25
2022-12-19T04:19:30.635Z,100614.88
2022-12-19T04:22:47.249Z,100613.00
2022-12-19T04:25:51.879Z,100620.34
2022-12-19T04:28:56.791Z,100625.81
2022-12-19T04:32:00.253Z,100615.28
2022-12-19T04:35:03.310Z,100628.41
2022-12-19T04:38:06.560Z,100630.28
2022-12-19T04:41:11.171Z,100609.91
2022-12-19T04:44:13.660Z,100628.59
2022-12-19T04:47:16.438Z,100625.78
2022-12-19T04:50:19.201Z,100620.44
2022-12-19T04:53:21.937Z,100624.84
2022-12-19T04:56:24.523Z,100620.56
2022-12-19T04:59:27.703Z,100609.00
2022-12-19T05:02:30.490Z,100623.87
2022-12-19T05:05:33.350Z,100622.75
2022-12-19T05:08:38.103Z,100627.22
2022-12-19T05:11:41.168Z,100626.53
2022-12-19T05:14:43.621Z,100621.88
2022-12-19T05:17:46.493Z,100635.03
2022-12-19T05:20:49.356Z,100621.78
2022-12-19T05:23:52.320Z,100632.28
2022-12-19T05:26:54.746Z,100621.53
2022-12-19T05:29:57.590Z,100619.84
2022-12-19T05:33:00.378Z,100634.63
2022-12-19T05:36:03.944Z,100592.38
2022-12-19T05:39:06.774Z,100600.56
2022-12-19T05:42:12.338Z,100622.28
2022-12-19T05:45:15.239Z,100635.53
2022-12-19T05:48:18.139Z,100635.53
2022-12-19T05:51:21.255Z,100636.44
2022-12-19T05:54:24.132Z,100627.41
2022-12-19T05:57:26.647Z,100603.81
2022-12-19T06:00:33.832Z,100620.03
2022-12-19T06:03:37.022Z,100615.53
2022-12-19T06:06:39.689Z,100619.69
2022-12-19T06:09:42.958Z,100626.16
2022-12-19T06:12:45.893Z,100630.00
2022-12-19T06:15:48.786Z,100643.09
2022-12-19T06:18:51.494Z,100647.44
2022-12-19T06:21:54.283Z,100645.69
2022-12-19T06:24:57.250Z,100644.13
2022-12-19T06:28:00.083Z,100652.62
2022-12-19T06:31:04.794Z,100645.72
2022-12-19T06:34:10.238Z,100642.06
2022-12-19T06:37:12.810Z,100651.34
2022-12-19T06:40:35.785Z,100651.81
2022-12-19T06:43:38.478Z,100650.47
2022-12-19T06:46:42.184Z,100649.41
2022-12-19T06:49:45.411Z,100646.50
2022-12-19T06:52:48.280Z,100643.53
2022-12-19T06:55:52.665Z,100651.31
2022-12-19T06:58:55.502Z,100649.72
2022-12-19T07:02:00.665Z,100643.50
2022-12-19T07:05:05.670Z,100652.88
2022-12-19T07:08:08.703Z,100560.13
2022-12-19T07:11:11.823Z,100659.12
2022-12-19T07:14:14.336Z,100667.91
2022-12-19T07:17:18.179Z,100661.66
2022-12-19T07:20:21.654Z,100656.31
2022-12-19T07:23:24.588Z,100650.59
2022-12-19T07:26:27.577Z,100659.88
2022-12-19T07:29:30.512Z,100657.06
2022-12-19T07:32:33.246Z,100654.41
2022-12-19T07:35:36.109Z,100663.44
2022-12-19T07:38:38.805Z,100669.97
2022-12-19T07:41:41.698Z,100678.63
2022-12-19T07:44:44.500Z,100681.47
2022-12-19T07:47:47.983Z,100679.91
2022-12-19T07:50:50.687Z,100674.00
2022-12-19T07:53:53.556Z,100672.75
2022-12-19T07:56:56.434Z,100675.50
2022-12-19T07:59:59.388Z,100671.75
2022-12-19T08:03:02.534Z,100670.03
2022-12-19T08:06:06.841Z,100672.75
2022-12-19T08:09:09.470Z,100667.03
2022-12-19T08:12:12.891Z,100675.56
2022-12-19T08:15:15.352Z,100675.00
2022-12-19T08:18:18.247Z,100675.13
2022-12-19T08:21:20.727Z,100682.81
2022-12-19T08:24:23.569Z,100664.59
2022-12-19T08:27:26.749Z,100664.06
2022-12-19T08:30:29.881Z,100662.09
2022-12-19T08:33:32.429Z,100668.78
2022-12-19T08:36:35.291Z,100672.62
2022-12-19T08:39:37.788Z,100669.38
2022-12-19T08:42:40.661Z,100668.50
2022-12-19T08:45:43.145Z,100678.06
2022-12-19T08:48:46.766Z,100664.44
2022-12-19T08:51:49.758Z,100671.28
2022-12-19T08:54:52.572Z,100663.66
2022-12-19T08:57:55.061Z,100666.97
2022-12-19T09:01:05.491Z,100652.31
2022-12-19T09:05:52.004Z,100670.87
2022-12-19T09:07:31.259Z,100663.91
2022-12-19T09:10:37.622Z,100671.78
2022-12-19T09:13:41.879Z,100656.00
2022-12-19T09:16:44.352Z,100660.75
2022-12-19T09:19:47.747Z,100654.34
2022-12-19T09:22:50.933Z,100656.41
2022-12-19T09:25:54.944Z,100653.31
2022-12-19T09:28:57.594Z,100650.78
2022-12-19T09:32:00.428Z,100660.37
2022-12-19T09:35:02.985Z,100655.72
2022-12-19T09:38:05.847Z,100644.34
2022-12-19T09:41:20.745Z,100644.56
2022-12-19T09:44:45.179Z,100651.00
2022-12-19T09:47:49.023Z,100657.41
2022-12-19T09:50:54.762Z,100646.53
2022-12-19T09:54:09.354Z,100644.56
2022-12-19T09:57:22.395Z,100620.69
2022-12-19T10:00:32.881Z,100615.75
2022-12-19T10:03:42.379Z,100623.97
2022-12-19T10:07:11.419Z,100624.34
2022-12-19T10:12:34.537Z,100623.09
2022-12-19T10:13:55.013Z,100622.44
2022-12-19T10:17:24.478Z,100617.44
2022-12-19T10:20:31.105Z,100604.41
2022-12-19T10:23:45.936Z,100605.38
2022-12-19T10:26:52.177Z,100603.66
2022-12-19T10:30:10.927Z,100609.72
2022-12-19T10:33:27.147Z,100613.50
2022-12-19T10:37:04.599Z,100591.84
2022-12-19T10:40:37.197Z,100610.03
2022-12-19T10:44:02.638Z,100601.28
2022-12-19T10:47:05.250Z,100614.09
2022-12-19T10:50:23.516Z,100606.97
2022-12-19T10:53:28.881Z,100601.31
2022-12-19T10:56:37.508Z,100598.69
2022-12-19T10:59:56.456Z,100597.84
2022-12-19T11:03:16.698Z,100596.47
2022-12-19T11:06:42.579Z,100587.09
2022-12-19T11:09:49.630Z,100572.59
2022-12-19T11:18:26.395Z,100575.16
2022-12-19T11:22:24.727Z,100575.41
2022-12-19T11:29:26.910Z,100585.47
2022-12-19T11:29:38.527Z,100582.09
2022-12-19T11:30:41.740Z,100588.03
2022-12-19T11:34:35.687Z,100570.50
2022-12-19T11:37:46.117Z,100553.16
2022-12-19T11:40:53.521Z,100566.13
2022-12-19T11:44:03.365Z,100556.16
2022-12-19T11:47:23.910Z,100560.34
2022-12-19T11:50:30.153Z,100568.03
2022-12-19T11:53:44.826Z,100551.97
2022-12-19T11:56:47.658Z,100552.94
2022-12-19T11:59:52.619Z,100552.03
2022-12-19T12:03:09.410Z,100545.03
2022-12-19T12:06:15.434Z,100542.47
2022-12-19T12:13:01.618Z,100541.50
2022-12-19T12:23:13.230Z,100538.97
2022-12-19T12:30:19.047Z,100533.84
2022-12-19T12:31:17.331Z,100524.66
2022-12-19T12:31:38.743Z,100515.25
2022-12-19T12:31:41.052Z,100501.84
2022-12-19T12:31:49.209Z,100517.25
2022-12-19T12:35:56.312Z,100506.66
2022-12-19T12:38:26.496Z,100503.72
2022-12-19T12:41:56.886Z,100466.09
2022-12-19T12:44:59.696Z,100511.25
2022-12-19T12:48:02.561Z,100513.31
2022-12-19T12:51:05.880Z,100494.50
2022-12-19T12:54:12.464Z,100512.78
2022-12-19T12:57:36.995Z,100500.97
2022-12-19T13:00:39.961Z,100492.31
2022-12-19T13:03:43.040Z,100493.75
2022-12-19T13:06:51.913Z,100492.47
2022-12-19T13:10:43.950Z,100485.59
2022-12-19T13:13:58.113Z,100487.66
2022-12-19T13:17:07.688Z,100489.94
2022-12-19T13:20:12.179Z,100478.97
2022-12-19T13:23:30.110Z,100486.94
2022-12-19T13:26:49.334Z,100486.59
2022-12-19T13:30:12.433Z,100486.81
2022-12-19T13:33:16.341Z,100484.59
2022-12-19T13:39:55.645Z,100487.31
2022-12-19T13:40:32.273Z,100489.75
2022-12-19T13:43:48.114Z,100487.19
2022-12-19T13:46:50.968Z,100475.53
2022-12-19T13:49:53.951Z,100469.25
2022-12-19T13:52:57.164Z,100463.50
2022-12-19T13:56:12.301Z,100469.31
2022-12-19T13:59:15.140Z,100465.16
2022-12-19T14:02:28.901Z,100467.47
2022-12-19T14:06:16.850Z,100451.09
2022-12-19T14:11:24.978Z,100459.41
2022-12-19T14:13:40.195Z,100458.66
2022-12-19T14:16:16.285Z,100462.28
2022-12-19T14:19:21.761Z,100460.44
2022-12-19T14:22:27.511Z,100458.44
2022-12-19T14:28:21.196Z,100452.03
2022-12-19T14:29:45.553Z,100445.72
2022-12-19T14:33:46.159Z,100443.75
2022-12-19T14:36:25.704Z,100442.88
2022-12-19T14:39:35.276Z,100442.38
2022-12-19T14:43:59.031Z,100450.63
2022-12-19T14:51:51.586Z,100455.00
2022-12-19T14:54:15.828Z,100447.94
2022-12-19T14:54:26.486Z,100430.78
2022-12-19T14:57:00.696Z,100444.94
2022-12-19T15:01:07.174Z,100449.12
2022-12-19T15:04:49.547Z,100439.28
2022-12-19T15:07:19.801Z,100442.81
2022-12-19T15:11:03.269Z,100438.25
2022-12-19T15:14:51.087Z,100425.41
2022-12-19T15:17:25.501Z,100451.94
2022-12-19T15:20:28.383Z,100456.34
2022-12-19T15:23:31.399Z,100459.06
2022-12-19T15:26:36.066Z,100461.63
2022-12-19T15:29:38.637Z,100460.56
2022-12-19T15:32:41.799Z,100456.97
2022-12-19T15:35:45.168Z,100467.56
2022-12-19T15:38:48.071Z,100464.06
2022-12-19T15:41:52.113Z,100460.44
2022-12-19T15:45:00.096Z,100457.25
2022-12-19T15:48:02.668Z,100460.03
2022-12-19T15:51:05.744Z,100456.41
2022-12-19T15:54:46.633Z,100457.16
2022-12-19T15:57:33.888Z,100458.00
2022-12-19T16:00:36.863Z,100463.34
2022-12-19T16:03:40.227Z,100457.94
2022-12-19T16:06:44.373Z,100457.78
2022-12-19T16:09:48.122Z,100454.16
2022-12-19T16:12:53.215Z,100453.13
2022-12-19T16:15:57.859Z,100446.97
2022-12-19T16:19:00.416Z,100446.97
2022-12-19T16:22:15.378Z,100444.25
2022-12-19T16:25:18.128Z,100445.94
2022-12-19T16:28:30.881Z,100434.50
2022-12-19T16:31:33.750Z,100427.44
2022-12-19T16:34:36.611Z,100437.97
2022-12-19T16:37:39.155Z,100430.22
2022-12-19T16:40:42.730Z,100428.50
2022-12-19T16:43:45.904Z,100400.03
2022-12-19T16:46:51.390Z,100422.34
2022-12-19T16:49:54.273Z,100401.75
2022-12-19T16:52:57.372Z,100415.25
2022-12-19T16:56:00.283Z,100423.22
2022-12-19T16:59:08.501Z,100414.59
2022-12-19T17:02:26.004Z,100425.94
2022-12-19T17:05:30.893Z,100411.97
2022-12-19T17:08:33.782Z,100412.38
2022-12-19T17:11:36.672Z,100418.47
2022-12-19T17:14:39.226Z,100419.87
2022-12-19T17:17:42.078Z,100422.22
2022-12-19T17:20:46.601Z,100422.88
2022-12-19T17:23:50.205Z,100419.59
2022-12-19T17:26:52.864Z,100419.72
2022-12-19T17:29:55.912Z,100414.19
2022-12-19T17:32:59.224Z,100421.19
2022-12-19T17:36:03.672Z,100431.62
2022-12-19T17:39:18.851Z,100438.47
2022-12-19T17:42:24.052Z,100431.28
2022-12-19T17:45:29.570Z,100424.06
2022-12-19T17:48:33.416Z,100437.16
2022-12-19T17:51:35.898Z,100440.50
2022-12-19T17:54:38.825Z,100424.91
2022-12-19T17:57:41.366Z,100448.13
2022-12-19T18:00:44.948Z,100445.41
2022-12-19T18:03:50.828Z,100421.38
2022-12-19T18:06:53.638Z,100431.97
2022-12-19T18:09:56.819Z,100422.50
2022-12-19T18:12:59.385Z,100429.34
2022-12-19T18:16:03.494Z,100427.41
2022-12-19T18:19:06.423Z,100424.69
2022-12-19T18:22:13.576Z,100402.19
2022-12-19T18:25:22.423Z,100421.91
2022-12-19T18:28:25.280Z,100425.38
2022-12-19T18:31:28.045Z,100430.66
2022-12-19T18:34:32.230Z,100452.62
2022-12-19T18:37:34.689Z,100444.00
2022-12-19T18:40:38.191Z,100445.81
2022-12-19T18:43:40.965Z,100432.50
2022-12-19T18:46:44.368Z,100427.50
2022-12-19T18:49:48.316Z,100415.00
2022-12-19T18:52:52.214Z,100409.13
2022-12-19T18:55:55.639Z,100409.09
2022-12-19T18:59:03.868Z,100396.59
2022-12-19T19:02:24.172Z,100388.78
2022-12-19T19:05:29.683Z,100392.47
2022-12-19T19:08:34.286Z,100382.91
2022-12-19T19:11:39.255Z,100371.28
2022-12-19T19:14:42.236Z,100386.75
2022-12-19T19:17:48.291Z,100381.34
2022-12-19T19:20:55.727Z,100377.59
2022-12-19T19:24:06.003Z,100373.38
2022-12-19T19:27:08.506Z,100369.03
2022-12-19T19:30:12.244Z,100370.53
2022-12-19T19:33:21.758Z,100371.50
2022-12-19T19:36:28.260Z,100386.31
2022-12-19T19:39:32.659Z,100384.84
2022-12-19T19:42:35.980Z,100374.22
2022-12-19T19:45:43.265Z,100370.81
2022-12-19T19:48:49.350Z,100314.56
2022-12-19T19:51:55.631Z,100347.94
2022-12-19T19:55:01.452Z,100360.72
2022-12-19T19:58:04.267Z,100371.19
2022-12-19T20:01:12.103Z,100364.53
2022-12-19T20:04:15.287Z,100358.66
2022-12-19T20:07:17.947Z,100348.00
2022-12-19T20:10:21.113Z,100350.62
2022-12-19T20:13:23.901Z,100349.78
2022-12-19T20:16:26.848Z,100348.00
2022-12-19T20:19:29.599Z,100359.25
2022-12-19T20:22:35.456Z,100361.97
2022-12-19T20:25:39.921Z,100361.06
2022-12-19T20:28:48.400Z,100370.81
2022-12-19T20:31:52.281Z,100368.19
2022-12-19T20:34:55.490Z,100369.09
2022-12-19T20:37:58.067Z,100351.03
2022-12-19T20:41:01.213Z,100368.28
2022-12-19T20:44:03.912Z,100363.81
2022-12-19T20:47:06.942Z,100350.47
2022-12-19T20:50:09.789Z,100352.22
2022-12-19T20:53:12.697Z,100348.91
2022-12-19T20:56:17.258Z,100338.56
2022-12-19T20:59:20.329Z,100359.13
2022-12-19T21:02:22.965Z,100355.91
2022-12-19T21:05:26.005Z,100352.41
2022-12-19T21:08:28.917Z,100350.56
2022-12-19T21:11:32.020Z,100348.13
2022-12-19T21:14:34.612Z,100336.38
2022-12-19T21:17:37.849Z,100348.97
2022-12-19T21:20:42.908Z,100342.75
2022-12-19T21:23:45.933Z,100343.38
2022-12-19T21:26:57.492Z,100328.94
2022-12-19T21:30:01.018Z,100348.56
2022-12-19T21:33:04.220Z,100352.16
2022-12-19T21:36:08.624Z,100349.34
2022-12-19T21:39:11.430Z,100353.72
2022-12-19T21:42:14.462Z,100344.88
2022-12-19T21:45:17.395Z,100327.00
2022-12-19T21:48:20.273Z,100329.03
2022-12-19T21:51:25.377Z,100323.84
2022-12-19T21:54:28.241Z,100320.25
2022-12-19T21:57:30.932Z,100326.31
2022-12-19T22:00:35.691Z,100326.25
2022-12-19T22:03:39.715Z,100326.25
2022-12-19T22:06:42.282Z,100320.09
2022-12-19T22:09:45.342Z,100320.16
2022-12-19T22:12:48.331Z,100320.94
2022-12-19T22:15:51.249Z,100320.88
2022-12-19T22:18:55.005Z,100322.44
2022-12-19T22:21:57.944Z,100328.59
2022-12-19T22:25:00.521Z,100325.97
2022-12-19T22:28:04.215Z,100316.16
2022-12-19T22:31:24.308Z,100320.50
2022-12-19T22:34:27.368Z,100313.53
2022-12-19T22:37:30.077Z,100312.56
2022-12-19T22:40:34.931Z,100308.88
2022-12-19T22:43:38.974Z,100298.28
2022-12-19T22:46:41.813Z,100277.37
2022-12-19T22:49:44.532Z,100286.53
2022-12-19T22:52:47.792Z,100286.81
2022-12-19T22:55:50.386Z,100290.88
2022-12-19T22:58:55.342Z,100275.25
2022-12-19T23:01:58.219Z,100269.12
2022-12-19T23:05:01.425Z,100252.44
2022-12-19T23:08:04.424Z,100254.00
2022-12-19T23:11:11.473Z,100247.88
2022-12-19T23:14:15.997Z,100240.84
2022-12-19T23:17:18.868Z,100245.31
2022-12-19T23:20:21.379Z,100243.47
2022-12-19T23:23:24.117Z,100246.97
2022-12-19T23:26:27.905Z,100246.09
2022-12-19T23:29:30.801Z,100255.66
2022-12-19T23:32:33.522Z,100249.59
2022-12-19T23:35:36.317Z,100246.12
2022-12-19T23:38:39.051Z,100244.44
2022-12-19T23:41:42.211Z,100252.22
2022-12-19T23:44:44.988Z,100240.75
2022-12-19T23:47:50.717Z,100248.75
2022-12-19T23:51:17.572Z,100237.44
2022-12-19T23:54:20.456Z,100229.28
2022-12-19T23:57:22.936Z,100237.34
